sensor_id;sensor_type;location;lat;lon;timestamp;temperature;humidity
32536;DHT22;18974;50.838;4.636;2023-07-31T00:02:16;17.80;99.90
32536;DHT22;18974;50.838;4.636;2023-07-31T00:04:42;17.80;99.90
32536;DHT22;18974;50.838;4.636;2023-07-31T00:07:07;17.80;99.90
32536;DHT22;18974;50.838;4.636;2023-07-31T00:09:33;17.90;99.90
32536;DHT22;18974;50.838;4.636;2023-07-31T00:11:59;17.90;99.90
32536;DHT22;18974;50.838;4.636;2023-07-31T00:14:25;18.00;99.90
32536;DHT22;18974;50.838;4.636;2023-07-31T00:16:51;18.10;99.90
32536;DHT22;18974;50.838;4.636;2023-07-31T00:19:16;18.10;99.90
32536;DHT22;18974;50.838;4.636;2023-07-31T00:21:43;18.10;99.90
32536;DHT22;18974;50.838;4.636;2023-07-31T00:24:09;18.20;99.90
32536;DHT22;18974;50.838;4.636;2023-07-31T00:26:34;18.10;99.90
32536;DHT22;18974;50.838;4.636;2023-07-31T00:29:00;18.10;99.90
32536;DHT22;18974;50.838;4.636;2023-07-31T00:31:25;18.20;99.90
32536;DHT22;18974;50.838;4.636;2023-07-31T00:33:52;18.10;99.90
32536;DHT22;18974;50.838;4.636;2023-07-31T00:36:17;18.20;99.90
32536;DHT22;18974;50.838;4.636;2023-07-31T00:38:43;18.20;99.90
32536;DHT22;18974;50.838;4.636;2023-07-31T00:41:09;18.10;99.90
32536;DHT22;18974;50.838;4.636;2023-07-31T00:43:35;18.10;99.90
32536;DHT22;18974;50.838;4.636;2023-07-31T00:46:01;18.10;99.90
32536;DHT22;18974;50.838;4.636;2023-07-31T00:48:26;18.10;99.90
32536;DHT22;18974;50.838;4.636;2023-07-31T00:50:52;18.10;99.90
32536;DHT22;18974;50.838;4.636;2023-07-31T00:53:18;18.20;99.90
32536;DHT22;18974;50.838;4.636;2023-07-31T00:55:44;18.20;99.90
32536;DHT22;18974;50.838;4.636;2023-07-31T00:58:10;18.20;99.90
32536;DHT22;18974;50.838;4.636;2023-07-31T01:00:36;18.20;99.90
32536;DHT22;18974;50.838;4.636;2023-07-31T01:03:01;18.30;99.90
32536;DHT22;18974;50.838;4.636;2023-07-31T01:08:32;18.20;99.90
32536;DHT22;18974;50.838;4.636;2023-07-31T01:11:06;18.10;99.90
32536;DHT22;18974;50.838;4.636;2023-07-31T01:13:32;18.10;99.90
32536;DHT22;18974;50.838;4.636;2023-07-31T01:15:58;18.00;99.90
32536;DHT22;18974;50.838;4.636;2023-07-31T01:18:24;18.10;99.90
32536;DHT22;18974;50.838;4.636;2023-07-31T01:21:18;18.10;99.90
32536;DHT22;18974;50.838;4.636;2023-07-31T01:26:34;18.10;99.90
32536;DHT22;18974;50.838;4.636;2023-07-31T01:29:14;18.00;99.90
32536;DHT22;18974;50.838;4.636;2023-07-31T01:31:47;18.10;99.90
32536;DHT22;18974;50.838;4.636;2023-07-31T01:34:14;18.00;99.90
32536;DHT22;18974;50.838;4.636;2023-07-31T01:36:43;18.10;99.90
32536;DHT22;18974;50.838;4.636;2023-07-31T01:39:09;18.10;99.90
32536;DHT22;18974;50.838;4.636;2023-07-31T01:41:34;18.10;99.90
32536;DHT22;18974;50.838;4.636;2023-07-31T01:44:00;18.10;99.90
32536;DHT22;18974;50.838;4.636;2023-07-31T01:46:25;18.10;99.90
32536;DHT22;18974;50.838;4.636;2023-07-31T01:48:51;18.10;99.90
32536;DHT22;18974;50.838;4.636;2023-07-31T01:51:17;18.10;99.90
32536;DHT22;18974;50.838;4.636;2023-07-31T01:53:42;18.10;99.90
32536;DHT22;18974;50.838;4.636;2023-07-31T01:56:08;18.20;99.90
32536;DHT22;18974;50.838;4.636;2023-07-31T01:58:34;18.20;99.90
32536;DHT22;18974;50.838;4.636;2023-07-31T02:00:59;18.20;99.90
32536;DHT22;18974;50.838;4.636;2023-07-31T02:03:25;18.20;99.90
32536;DHT22;18974;50.838;4.636;2023-07-31T02:05:51;18.10;99.90
32536;DHT22;18974;50.838;4.636;2023-07-31T02:08:16;18.20;99.90
32536;DHT22;18974;50.838;4.636;2023-07-31T02:10:42;18.10;99.90
32536;DHT22;18974;50.838;4.636;2023-07-31T02:13:08;18.10;99.90
32536;DHT22;18974;50.838;4.636;2023-07-31T02:15:34;18.20;99.90
32536;DHT22;18974;50.838;4.636;2023-07-31T02:18:00;18.20;99.90
32536;DHT22;18974;50.838;4.636;2023-07-31T02:20:25;18.30;99.90
32536;DHT22;18974;50.838;4.636;2023-07-31T02:22:51;18.20;99.90
32536;DHT22;18974;50.838;4.636;2023-07-31T02:25:17;18.20;99.90
32536;DHT22;18974;50.838;4.636;2023-07-31T02:27:42;18.20;99.90
32536;DHT22;18974;50.838;4.636;2023-07-31T02:30:09;18.20;99.90
32536;DHT22;18974;50.838;4.636;2023-07-31T02:32:34;18.20;99.90
32536;DHT22;18974;50.838;4.636;2023-07-31T02:35:00;18.20;99.90
32536;DHT22;18974;50.838;4.636;2023-07-31T02:37:26;18.20;99.90
32536;DHT22;18974;50.838;4.636;2023-07-31T02:39:54;18.20;99.90
32536;DHT22;18974;50.838;4.636;2023-07-31T02:42:19;18.20;99.90
32536;DHT22;18974;50.838;4.636;2023-07-31T02:44:45;18.30;99.90
32536;DHT22;18974;50.838;4.636;2023-07-31T02:47:11;18.30;99.90
32536;DHT22;18974;50.838;4.636;2023-07-31T02:49:36;18.30;99.90
32536;DHT22;18974;50.838;4.636;2023-07-31T02:52:02;18.30;99.90
32536;DHT22;18974;50.838;4.636;2023-07-31T02:54:28;18.30;99.90
32536;DHT22;18974;50.838;4.636;2023-07-31T02:56:53;18.30;99.90
32536;DHT22;18974;50.838;4.636;2023-07-31T02:59:20;18.30;99.90
32536;DHT22;18974;50.838;4.636;2023-07-31T03:01:46;18.30;99.90
32536;DHT22;18974;50.838;4.636;2023-07-31T03:04:11;18.30;99.90
32536;DHT22;18974;50.838;4.636;2023-07-31T03:06:37;18.30;99.90
32536;DHT22;18974;50.838;4.636;2023-07-31T03:09:03;18.20;99.90
32536;DHT22;18974;50.838;4.636;2023-07-31T03:11:28;18.20;99.90
32536;DHT22;18974;50.838;4.636;2023-07-31T03:13:54;18.30;99.90
32536;DHT22;18974;50.838;4.636;2023-07-31T03:16:20;18.30;99.90
32536;DHT22;18974;50.838;4.636;2023-07-31T03:18:45;18.30;99.90
32536;DHT22;18974;50.838;4.636;2023-07-31T03:21:12;18.20;99.90
32536;DHT22;18974;50.838;4.636;2023-07-31T03:23:37;18.20;99.90
32536;DHT22;18974;50.838;4.636;2023-07-31T03:26:07;18.30;99.90
32536;DHT22;18974;50.838;4.636;2023-07-31T03:28:33;18.30;99.90
32536;DHT22;18974;50.838;4.636;2023-07-31T03:30:59;18.30;99.90
32536;DHT22;18974;50.838;4.636;2023-07-31T03:33:25;18.30;99.90
32536;DHT22;18974;50.838;4.636;2023-07-31T03:35:51;18.30;99.90
32536;DHT22;18974;50.838;4.636;2023-07-31T03:38:17;18.40;99.90
32536;DHT22;18974;50.838;4.636;2023-07-31T03:40:42;18.30;99.90
32536;DHT22;18974;50.838;4.636;2023-07-31T03:43:08;18.30;99.90
32536;DHT22;18974;50.838;4.636;2023-07-31T03:45:34;18.20;99.90
32536;DHT22;18974;50.838;4.636;2023-07-31T03:47:59;18.10;99.90
32536;DHT22;18974;50.838;4.636;2023-07-31T03:50:25;18.10;99.90
32536;DHT22;18974;50.838;4.636;2023-07-31T03:52:52;18.10;99.90
32536;DHT22;18974;50.838;4.636;2023-07-31T03:55:17;18.00;99.90
32536;DHT22;18974;50.838;4.636;2023-07-31T03:57:43;18.00;99.90
32536;DHT22;18974;50.838;4.636;2023-07-31T04:00:11;18.00;99.90
32536;DHT22;18974;50.838;4.636;2023-07-31T04:02:37;18.00;99.90
32536;DHT22;18974;50.838;4.636;2023-07-31T04:05:03;18.00;99.90
32536;DHT22;18974;50.838;4.636;2023-07-31T04:07:29;18.00;99.90
32536;DHT22;18974;50.838;4.636;2023-07-31T04:09:55;17.90;99.90
32536;DHT22;18974;50.838;4.636;2023-07-31T04:12:20;17.90;99.90
32536;DHT22;18974;50.838;4.636;2023-07-31T04:14:46;17.80;99.90
32536;DHT22;18974;50.838;4.636;2023-07-31T04:17:12;17.80;99.90
32536;DHT22;18974;50.838;4.636;2023-07-31T04:19:37;17.70;99.90
32536;DHT22;18974;50.838;4.636;2023-07-31T04:22:03;17.70;99.90
32536;DHT22;18974;50.838;4.636;2023-07-31T04:24:29;17.70;99.90
32536;DHT22;18974;50.838;4.636;2023-07-31T04:26:55;17.60;99.90
32536;DHT22;18974;50.838;4.636;2023-07-31T04:29:21;17.60;99.90
32536;DHT22;18974;50.838;4.636;2023-07-31T04:31:48;17.60;99.90
32536;DHT22;18974;50.838;4.636;2023-07-31T04:34:14;17.60;99.90
32536;DHT22;18974;50.838;4.636;2023-07-31T04:36:39;17.50;99.90
32536;DHT22;18974;50.838;4.636;2023-07-31T04:39:05;17.50;99.90
32536;DHT22;18974;50.838;4.636;2023-07-31T04:41:31;17.60;99.90
32536;DHT22;18974;50.838;4.636;2023-07-31T04:43:57;17.50;99.90
32536;DHT22;18974;50.838;4.636;2023-07-31T04:46:22;17.50;99.90
32536;DHT22;18974;50.838;4.636;2023-07-31T04:48:48;17.50;99.90
32536;DHT22;18974;50.838;4.636;2023-07-31T04:51:14;17.60;99.90
32536;DHT22;18974;50.838;4.636;2023-07-31T04:53:39;17.60;99.90
32536;DHT22;18974;50.838;4.636;2023-07-31T04:56:05;17.60;99.90
32536;DHT22;18974;50.838;4.636;2023-07-31T04:58:31;17.50;99.90
32536;DHT22;18974;50.838;4.636;2023-07-31T05:00:56;17.50;99.90
32536;DHT22;18974;50.838;4.636;2023-07-31T05:03:22;17.50;99.90
32536;DHT22;18974;50.838;4.636;2023-07-31T05:05:48;17.50;99.90
32536;DHT22;18974;50.838;4.636;2023-07-31T05:08:13;17.60;99.90
32536;DHT22;18974;50.838;4.636;2023-07-31T05:10:39;17.60;99.90
32536;DHT22;18974;50.838;4.636;2023-07-31T05:13:05;17.60;99.90
32536;DHT22;18974;50.838;4.636;2023-07-31T05:15:31;17.60;99.90
32536;DHT22;18974;50.838;4.636;2023-07-31T05:17:56;17.60;99.90
32536;DHT22;18974;50.838;4.636;2023-07-31T05:20:22;17.60;99.90
32536;DHT22;18974;50.838;4.636;2023-07-31T05:22:48;17.50;99.90
32536;DHT22;18974;50.838;4.636;2023-07-31T05:25:13;17.50;99.90
32536;DHT22;18974;50.838;4.636;2023-07-31T05:27:39;17.50;99.90
32536;DHT22;18974;50.838;4.636;2023-07-31T05:30:05;17.40;99.90
32536;DHT22;18974;50.838;4.636;2023-07-31T05:32:31;17.40;99.90
32536;DHT22;18974;50.838;4.636;2023-07-31T05:34:57;17.40;99.90
32536;DHT22;18974;50.838;4.636;2023-07-31T05:37:23;17.30;99.90
32536;DHT22;18974;50.838;4.636;2023-07-31T05:39:49;17.30;99.90
32536;DHT22;18974;50.838;4.636;2023-07-31T05:42:16;17.20;99.90
32536;DHT22;18974;50.838;4.636;2023-07-31T05:44:41;17.30;99.90
32536;DHT22;18974;50.838;4.636;2023-07-31T05:47:07;17.30;99.90
32536;DHT22;18974;50.838;4.636;2023-07-31T05:49:33;17.20;99.90
32536;DHT22;18974;50.838;4.636;2023-07-31T05:51:59;17.10;99.90
32536;DHT22;18974;50.838;4.636;2023-07-31T05:54:25;17.00;99.90
32536;DHT22;18974;50.838;4.636;2023-07-31T05:56:50;17.00;99.90
32536;DHT22;18974;50.838;4.636;2023-07-31T05:59:16;17.00;99.90
32536;DHT22;18974;50.838;4.636;2023-07-31T06:01:42;17.00;99.90
32536;DHT22;18974;50.838;4.636;2023-07-31T06:04:07;17.00;99.90
32536;DHT22;18974;50.838;4.636;2023-07-31T06:06:33;16.90;99.90
32536;DHT22;18974;50.838;4.636;2023-07-31T06:08:59;16.90;99.90
32536;DHT22;18974;50.838;4.636;2023-07-31T06:11:25;16.90;99.90
32536;DHT22;18974;50.838;4.636;2023-07-31T06:13:51;16.90;99.90
32536;DHT22;18974;50.838;4.636;2023-07-31T06:16:16;16.90;99.90
32536;DHT22;18974;50.838;4.636;2023-07-31T06:18:42;16.90;99.90
32536;DHT22;18974;50.838;4.636;2023-07-31T06:21:09;16.90;99.90
32536;DHT22;18974;50.838;4.636;2023-07-31T06:23:35;16.90;99.90
32536;DHT22;18974;50.838;4.636;2023-07-31T06:26:00;17.00;99.90
32536;DHT22;18974;50.838;4.636;2023-07-31T06:28:30;17.00;99.90
32536;DHT22;18974;50.838;4.636;2023-07-31T06:30:57;17.00;99.90
32536;DHT22;18974;50.838;4.636;2023-07-31T06:33:23;17.10;99.90
32536;DHT22;18974;50.838;4.636;2023-07-31T06:35:49;17.20;99.90
32536;DHT22;18974;50.838;4.636;2023-07-31T06:38:15;17.30;99.90
32536;DHT22;18974;50.838;4.636;2023-07-31T06:40:40;17.30;99.90
32536;DHT22;18974;50.838;4.636;2023-07-31T06:43:06;17.40;99.90
32536;DHT22;18974;50.838;4.636;2023-07-31T06:45:35;17.40;99.90
32536;DHT22;18974;50.838;4.636;2023-07-31T06:48:02;17.40;99.90
32536;DHT22;18974;50.838;4.636;2023-07-31T06:50:29;17.50;99.90
32536;DHT22;18974;50.838;4.636;2023-07-31T06:52:55;17.50;99.90
32536;DHT22;18974;50.838;4.636;2023-07-31T06:55:21;17.60;99.90
32536;DHT22;18974;50.838;4.636;2023-07-31T06:57:48;17.50;99.90
32536;DHT22;18974;50.838;4.636;2023-07-31T07:00:14;17.50;99.90
32536;DHT22;18974;50.838;4.636;2023-07-31T07:02:40;17.60;99.90
32536;DHT22;18974;50.838;4.636;2023-07-31T07:05:07;17.70;99.90
32536;DHT22;18974;50.838;4.636;2023-07-31T07:07:33;17.80;99.90
32536;DHT22;18974;50.838;4.636;2023-07-31T07:09:58;17.90;99.90
32536;DHT22;18974;50.838;4.636;2023-07-31T07:12:29;18.00;99.90
32536;DHT22;18974;50.838;4.636;2023-07-31T07:14:55;18.10;99.90
32536;DHT22;18974;50.838;4.636;2023-07-31T07:17:23;18.10;99.90
32536;DHT22;18974;50.838;4.636;2023-07-31T07:19:48;18.20;99.90
32536;DHT22;18974;50.838;4.636;2023-07-31T07:22:14;18.20;99.90
32536;DHT22;18974;50.838;4.636;2023-07-31T07:24:40;18.40;99.90
32536;DHT22;18974;50.838;4.636;2023-07-31T07:27:06;18.40;99.90
32536;DHT22;18974;50.838;4.636;2023-07-31T07:29:33;18.50;99.90
32536;DHT22;18974;50.838;4.636;2023-07-31T07:31:59;18.50;99.90
32536;DHT22;18974;50.838;4.636;2023-07-31T07:34:26;18.70;99.90
32536;DHT22;18974;50.838;4.636;2023-07-31T07:36:52;18.80;99.90
32536;DHT22;18974;50.838;4.636;2023-07-31T07:39:18;18.90;99.90
32536;DHT22;18974;50.838;4.636;2023-07-31T07:41:44;18.90;99.90
32536;DHT22;18974;50.838;4.636;2023-07-31T07:44:09;18.90;99.90
32536;DHT22;18974;50.838;4.636;2023-07-31T07:46:35;18.90;99.90
32536;DHT22;18974;50.838;4.636;2023-07-31T07:49:00;18.90;99.90
32536;DHT22;18974;50.838;4.636;2023-07-31T07:51:26;18.80;99.90
32536;DHT22;18974;50.838;4.636;2023-07-31T07:53:52;18.90;99.90
32536;DHT22;18974;50.838;4.636;2023-07-31T07:56:18;18.90;99.90
32536;DHT22;18974;50.838;4.636;2023-07-31T07:58:43;18.90;99.90
32536;DHT22;18974;50.838;4.636;2023-07-31T08:01:09;18.80;99.90
32536;DHT22;18974;50.838;4.636;2023-07-31T08:03:34;18.80;99.90
32536;DHT22;18974;50.838;4.636;2023-07-31T08:06:01;18.90;99.90
32536;DHT22;18974;50.838;4.636;2023-07-31T08:08:28;18.90;99.90
32536;DHT22;18974;50.838;4.636;2023-07-31T08:10:54;19.00;99.90
32536;DHT22;18974;50.838;4.636;2023-07-31T08:13:20;18.90;99.90
32536;DHT22;18974;50.838;4.636;2023-07-31T08:15:45;18.80;99.90
32536;DHT22;18974;50.838;4.636;2023-07-31T08:18:11;18.90;99.90
32536;DHT22;18974;50.838;4.636;2023-07-31T08:20:37;18.90;99.90
32536;DHT22;18974;50.838;4.636;2023-07-31T08:23:03;19.00;99.90
32536;DHT22;18974;50.838;4.636;2023-07-31T08:25:29;19.10;99.90
32536;DHT22;18974;50.838;4.636;2023-07-31T08:27:55;19.10;99.90
32536;DHT22;18974;50.838;4.636;2023-07-31T08:30:21;19.10;99.90
32536;DHT22;18974;50.838;4.636;2023-07-31T08:32:47;19.00;99.90
32536;DHT22;18974;50.838;4.636;2023-07-31T08:35:12;19.00;99.90
32536;DHT22;18974;50.838;4.636;2023-07-31T08:37:38;19.00;99.90
32536;DHT22;18974;50.838;4.636;2023-07-31T08:40:05;19.20;99.90
32536;DHT22;18974;50.838;4.636;2023-07-31T08:42:31;19.10;99.90
32536;DHT22;18974;50.838;4.636;2023-07-31T08:44:58;19.10;99.90
32536;DHT22;18974;50.838;4.636;2023-07-31T08:47:26;19.10;99.90
32536;DHT22;18974;50.838;4.636;2023-07-31T08:49:53;19.10;99.90
32536;DHT22;18974;50.838;4.636;2023-07-31T08:52:20;19.00;99.90
32536;DHT22;18974;50.838;4.636;2023-07-31T08:54:45;19.00;99.90
32536;DHT22;18974;50.838;4.636;2023-07-31T08:57:12;18.90;99.90
32536;DHT22;18974;50.838;4.636;2023-07-31T08:59:39;18.80;99.90
32536;DHT22;18974;50.838;4.636;2023-07-31T09:02:07;18.80;99.90
32536;DHT22;18974;50.838;4.636;2023-07-31T09:04:34;18.80;99.90
32536;DHT22;18974;50.838;4.636;2023-07-31T09:07:03;18.90;99.90
32536;DHT22;18974;50.838;4.636;2023-07-31T09:09:32;19.00;99.90
32536;DHT22;18974;50.838;4.636;2023-07-31T09:11:58;19.00;99.90
32536;DHT22;18974;50.838;4.636;2023-07-31T09:14:25;19.00;99.90
32536;DHT22;18974;50.838;4.636;2023-07-31T09:16:55;19.00;99.90
32536;DHT22;18974;50.838;4.636;2023-07-31T09:19:35;19.00;99.90
32536;DHT22;18974;50.838;4.636;2023-07-31T09:22:07;19.10;99.90
32536;DHT22;18974;50.838;4.636;2023-07-31T09:24:34;19.10;99.90
32536;DHT22;18974;50.838;4.636;2023-07-31T09:27:01;19.10;99.90
32536;DHT22;18974;50.838;4.636;2023-07-31T09:29:28;19.10;99.90
32536;DHT22;18974;50.838;4.636;2023-07-31T09:31:55;19.20;99.90
32536;DHT22;18974;50.838;4.636;2023-07-31T09:34:29;19.30;99.90
32536;DHT22;18974;50.838;4.636;2023-07-31T09:36:56;19.40;99.90
32536;DHT22;18974;50.838;4.636;2023-07-31T09:39:22;19.40;99.90
32536;DHT22;18974;50.838;4.636;2023-07-31T09:41:54;19.50;99.90
32536;DHT22;18974;50.838;4.636;2023-07-31T09:44:20;19.70;99.90
32536;DHT22;18974;50.838;4.636;2023-07-31T09:46:46;19.80;99.90
32536;DHT22;18974;50.838;4.636;2023-07-31T09:49:14;19.80;99.90
32536;DHT22;18974;50.838;4.636;2023-07-31T09:51:41;19.70;99.90
32536;DHT22;18974;50.838;4.636;2023-07-31T09:54:15;19.80;99.90
32536;DHT22;18974;50.838;4.636;2023-07-31T09:56:45;19.70;99.90
32536;DHT22;18974;50.838;4.636;2023-07-31T09:59:16;19.60;99.90
32536;DHT22;18974;50.838;4.636;2023-07-31T10:01:43;19.60;99.90
32536;DHT22;18974;50.838;4.636;2023-07-31T10:04:10;19.60;99.90
32536;DHT22;18974;50.838;4.636;2023-07-31T10:06:37;19.60;99.90
32536;DHT22;18974;50.838;4.636;2023-07-31T10:09:09;19.60;99.90
32536;DHT22;18974;50.838;4.636;2023-07-31T10:11:53;19.60;99.90
32536;DHT22;18974;50.838;4.636;2023-07-31T10:14:21;19.50;99.90
32536;DHT22;18974;50.838;4.636;2023-07-31T10:16:49;19.70;99.90
32536;DHT22;18974;50.838;4.636;2023-07-31T10:19:16;19.90;99.90
32536;DHT22;18974;50.838;4.636;2023-07-31T10:21:43;19.90;99.90
32536;DHT22;18974;50.838;4.636;2023-07-31T10:24:09;19.90;99.90
32536;DHT22;18974;50.838;4.636;2023-07-31T10:26:35;19.90;99.90
32536;DHT22;18974;50.838;4.636;2023-07-31T10:29:03;19.80;99.90
32536;DHT22;18974;50.838;4.636;2023-07-31T10:31:30;19.80;99.90
32536;DHT22;18974;50.838;4.636;2023-07-31T10:33:58;19.90;99.90
32536;DHT22;18974;50.838;4.636;2023-07-31T10:36:28;20.00;99.90
32536;DHT22;18974;50.838;4.636;2023-07-31T10:38:55;20.10;99.90
32536;DHT22;18974;50.838;4.636;2023-07-31T10:41:31;20.30;99.90
32536;DHT22;18974;50.838;4.636;2023-07-31T10:43:57;20.40;99.90
32536;DHT22;18974;50.838;4.636;2023-07-31T10:46:23;20.40;99.90
32536;DHT22;18974;50.838;4.636;2023-07-31T10:48:58;20.50;99.90
32536;DHT22;18974;50.838;4.636;2023-07-31T10:51:32;20.50;99.90
32536;DHT22;18974;50.838;4.636;2023-07-31T10:54:11;20.50;99.90
32536;DHT22;18974;50.838;4.636;2023-07-31T10:56:39;20.40;99.90
32536;DHT22;18974;50.838;4.636;2023-07-31T10:59:05;20.40;99.90
32536;DHT22;18974;50.838;4.636;2023-07-31T11:01:51;20.40;99.90
32536;DHT22;18974;50.838;4.636;2023-07-31T11:04:22;20.40;99.90
32536;DHT22;18974;50.838;4.636;2023-07-31T11:06:59;20.50;99.90
32536;DHT22;18974;50.838;4.636;2023-07-31T11:09:30;20.60;99.90
32536;DHT22;18974;50.838;4.636;2023-07-31T11:11:58;20.70;99.90
32536;DHT22;18974;50.838;4.636;2023-07-31T11:14:24;20.70;99.90
32536;DHT22;18974;50.838;4.636;2023-07-31T11:16:50;20.70;99.90
32536;DHT22;18974;50.838;4.636;2023-07-31T11:19:25;20.70;99.90
32536;DHT22;18974;50.838;4.636;2023-07-31T11:21:52;20.60;99.90
32536;DHT22;18974;50.838;4.636;2023-07-31T11:27:07;20.60;99.90
32536;DHT22;18974;50.838;4.636;2023-07-31T11:29:33;20.70;99.90
32536;DHT22;18974;50.838;4.636;2023-07-31T11:31:59;20.80;99.90
32536;DHT22;18974;50.838;4.636;2023-07-31T11:34:25;20.80;99.90
32536;DHT22;18974;50.838;4.636;2023-07-31T11:36:54;20.90;99.90
32536;DHT22;18974;50.838;4.636;2023-07-31T11:39:23;20.90;99.90
32536;DHT22;18974;50.838;4.636;2023-07-31T11:41:48;20.90;99.90
32536;DHT22;18974;50.838;4.636;2023-07-31T11:44:14;21.00;99.90
32536;DHT22;18974;50.838;4.636;2023-07-31T11:46:40;21.00;99.90
32536;DHT22;18974;50.838;4.636;2023-07-31T11:49:05;21.10;99.90
32536;DHT22;18974;50.838;4.636;2023-07-31T11:51:31;21.30;99.90
32536;DHT22;18974;50.838;4.636;2023-07-31T11:53:59;21.40;99.90
32536;DHT22;18974;50.838;4.636;2023-07-31T11:56:26;21.40;99.90
32536;DHT22;18974;50.838;4.636;2023-07-31T11:58:58;21.30;99.90
32536;DHT22;18974;50.838;4.636;2023-07-31T12:01:26;21.30;99.90
32536;DHT22;18974;50.838;4.636;2023-07-31T12:03:53;21.30;99.90
32536;DHT22;18974;50.838;4.636;2023-07-31T12:06:19;21.30;99.90
32536;DHT22;18974;50.838;4.636;2023-07-31T12:08:46;21.30;99.90
32536;DHT22;18974;50.838;4.636;2023-07-31T12:11:12;21.30;99.90
32536;DHT22;18974;50.838;4.636;2023-07-31T12:13:43;21.10;99.90
32536;DHT22;18974;50.838;4.636;2023-07-31T12:16:09;21.10;99.90
32536;DHT22;18974;50.838;4.636;2023-07-31T12:18:39;21.30;99.90
32536;DHT22;18974;50.838;4.636;2023-07-31T12:21:07;21.50;99.90
32536;DHT22;18974;50.838;4.636;2023-07-31T12:23:35;21.60;99.90
32536;DHT22;18974;50.838;4.636;2023-07-31T12:26:16;21.70;99.90
32536;DHT22;18974;50.838;4.636;2023-07-31T12:28:47;21.70;99.90
32536;DHT22;18974;50.838;4.636;2023-07-31T12:31:14;21.60;99.90
32536;DHT22;18974;50.838;4.636;2023-07-31T12:33:41;21.50;99.90
32536;DHT22;18974;50.838;4.636;2023-07-31T12:36:14;21.40;99.90
32536;DHT22;18974;50.838;4.636;2023-07-31T12:38:41;21.40;99.90
32536;DHT22;18974;50.838;4.636;2023-07-31T12:41:08;21.30;99.90
32536;DHT22;18974;50.838;4.636;2023-07-31T12:43:35;21.40;99.90
32536;DHT22;18974;50.838;4.636;2023-07-31T12:46:00;21.40;99.90
32536;DHT22;18974;50.838;4.636;2023-07-31T12:48:26;21.30;99.90
32536;DHT22;18974;50.838;4.636;2023-07-31T12:50:52;21.30;99.90
32536;DHT22;18974;50.838;4.636;2023-07-31T12:53:18;21.20;99.90
32536;DHT22;18974;50.838;4.636;2023-07-31T12:55:43;21.20;99.90
32536;DHT22;18974;50.838;4.636;2023-07-31T12:58:09;21.00;99.90
32536;DHT22;18974;50.838;4.636;2023-07-31T13:00:35;20.90;99.90
32536;DHT22;18974;50.838;4.636;2023-07-31T13:03:01;20.90;99.90
32536;DHT22;18974;50.838;4.636;2023-07-31T13:05:27;20.80;99.90
32536;DHT22;18974;50.838;4.636;2023-07-31T13:07:53;20.70;99.90
32536;DHT22;18974;50.838;4.636;2023-07-31T13:10:19;20.50;99.90
32536;DHT22;18974;50.838;4.636;2023-07-31T13:12:45;20.40;99.90
32536;DHT22;18974;50.838;4.636;2023-07-31T13:15:11;20.40;99.90
32536;DHT22;18974;50.838;4.636;2023-07-31T13:17:37;20.40;99.90
32536;DHT22;18974;50.838;4.636;2023-07-31T13:20:03;20.50;99.90
32536;DHT22;18974;50.838;4.636;2023-07-31T13:22:30;20.50;99.90
32536;DHT22;18974;50.838;4.636;2023-07-31T13:24:55;20.50;99.90
32536;DHT22;18974;50.838;4.636;2023-07-31T13:27:21;20.30;99.90
32536;DHT22;18974;50.838;4.636;2023-07-31T13:29:53;20.20;99.90
32536;DHT22;18974;50.838;4.636;2023-07-31T13:32:20;20.10;99.90
32536;DHT22;18974;50.838;4.636;2023-07-31T13:34:47;19.90;99.90
32536;DHT22;18974;50.838;4.636;2023-07-31T13:37:13;19.90;99.90
32536;DHT22;18974;50.838;4.636;2023-07-31T13:39:39;19.90;99.90
32536;DHT22;18974;50.838;4.636;2023-07-31T13:42:06;19.80;99.90
32536;DHT22;18974;50.838;4.636;2023-07-31T13:44:34;19.80;99.90
32536;DHT22;18974;50.838;4.636;2023-07-31T13:47:00;19.70;99.90
32536;DHT22;18974;50.838;4.636;2023-07-31T13:49:26;19.70;99.90
32536;DHT22;18974;50.838;4.636;2023-07-31T13:51:52;19.60;99.90
32536;DHT22;18974;50.838;4.636;2023-07-31T13:54:17;19.40;99.90
32536;DHT22;18974;50.838;4.636;2023-07-31T13:56:45;19.30;99.90
32536;DHT22;18974;50.838;4.636;2023-07-31T13:59:11;19.30;99.90
32536;DHT22;18974;50.838;4.636;2023-07-31T14:01:36;19.20;99.90
32536;DHT22;18974;50.838;4.636;2023-07-31T14:04:02;19.20;99.90
32536;DHT22;18974;50.838;4.636;2023-07-31T14:06:28;19.00;99.90
32536;DHT22;18974;50.838;4.636;2023-07-31T14:08:54;19.00;99.90
32536;DHT22;18974;50.838;4.636;2023-07-31T14:11:21;19.00;99.90
32536;DHT22;18974;50.838;4.636;2023-07-31T14:13:47;19.10;99.90
32536;DHT22;18974;50.838;4.636;2023-07-31T14:16:13;19.10;99.90
32536;DHT22;18974;50.838;4.636;2023-07-31T14:18:39;19.10;99.90
32536;DHT22;18974;50.838;4.636;2023-07-31T14:21:04;19.00;99.90
32536;DHT22;18974;50.838;4.636;2023-07-31T14:23:30;19.10;99.90
32536;DHT22;18974;50.838;4.636;2023-07-31T14:25:56;18.90;99.90
32536;DHT22;18974;50.838;4.636;2023-07-31T14:28:21;18.90;99.90
32536;DHT22;18974;50.838;4.636;2023-07-31T14:30:47;19.00;99.90
32536;DHT22;18974;50.838;4.636;2023-07-31T14:33:13;19.00;99.90
32536;DHT22;18974;50.838;4.636;2023-07-31T14:35:38;19.00;99.90
32536;DHT22;18974;50.838;4.636;2023-07-31T14:38:04;19.00;99.90
32536;DHT22;18974;50.838;4.636;2023-07-31T14:40:30;19.00;99.90
32536;DHT22;18974;50.838;4.636;2023-07-31T14:42:55;19.10;99.90
32536;DHT22;18974;50.838;4.636;2023-07-31T14:45:21;19.20;99.90
32536;DHT22;18974;50.838;4.636;2023-07-31T14:47:47;19.30;99.90
32536;DHT22;18974;50.838;4.636;2023-07-31T14:50:12;19.30;99.90
32536;DHT22;18974;50.838;4.636;2023-07-31T14:52:38;19.30;99.90
32536;DHT22;18974;50.838;4.636;2023-07-31T14:55:04;19.20;99.90
32536;DHT22;18974;50.838;4.636;2023-07-31T14:57:30;19.20;99.90
32536;DHT22;18974;50.838;4.636;2023-07-31T14:59:56;19.20;99.90
32536;DHT22;18974;50.838;4.636;2023-07-31T15:02:21;19.30;99.90
32536;DHT22;18974;50.838;4.636;2023-07-31T15:04:47;19.30;99.90
32536;DHT22;18974;50.838;4.636;2023-07-31T15:07:13;19.20;99.90
32536;DHT22;18974;50.838;4.636;2023-07-31T15:09:39;19.10;99.90
32536;DHT22;18974;50.838;4.636;2023-07-31T15:12:05;19.10;99.90
32536;DHT22;18974;50.838;4.636;2023-07-31T15:14:31;19.10;99.90
32536;DHT22;18974;50.838;4.636;2023-07-31T15:16:57;19.00;99.90
32536;DHT22;18974;50.838;4.636;2023-07-31T15:19:23;18.90;99.90
32536;DHT22;18974;50.838;4.636;2023-07-31T15:21:49;18.90;99.90
32536;DHT22;18974;50.838;4.636;2023-07-31T15:24:15;18.90;99.90
32536;DHT22;18974;50.838;4.636;2023-07-31T15:26:41;18.90;99.90
32536;DHT22;18974;50.838;4.636;2023-07-31T15:29:08;18.80;99.90
32536;DHT22;18974;50.838;4.636;2023-07-31T15:31:35;18.70;99.90
32536;DHT22;18974;50.838;4.636;2023-07-31T15:34:01;18.70;99.90
32536;DHT22;18974;50.838;4.636;2023-07-31T15:36:26;18.70;99.90